createdAt,value
2019-04-25T00:02:29.175Z,18.97
2019-04-25T00:05:33.696Z,19.40
2019-04-25T00:08:38.788Z,18.93
2019-04-25T00:11:46.618Z,18.90
2019-04-25T00:14:49.474Z,19.00
2019-04-25T00:17:53.742Z,18.83
2019-04-25T00:21:02.634Z,17.57
2019-04-25T00:24:13.607Z,18.77
2019-04-25T00:27:17.994Z,18.60
2019-04-25T00:30:23.931Z,18.20
2019-04-25T00:33:28.139Z,18.13
2019-04-25T00:36:32.388Z,18.47
2019-04-25T00:39:36.615Z,17.97
2019-04-25T00:42:42.805Z,17.87
2019-04-25T00:45:47.474Z,18.13
2019-04-25T00:48:52.669Z,15.77
2019-04-25T00:51:57.244Z,17.07
2019-04-25T00:55:01.950Z,17.23
2019-04-25T00:58:12.280Z,16.60
2019-04-25T01:01:32.225Z,16.43
2019-04-25T01:04:36.503Z,16.17
2019-04-25T01:07:42.111Z,17.00
2019-04-25T01:10:46.552Z,16.17
2019-04-25T01:13:52.243Z,17.07
2019-04-25T01:16:56.946Z,17.40
2019-04-25T01:20:01.288Z,17.20
2019-04-25T01:23:05.581Z,16.10
2019-04-25T01:26:10.134Z,16.77
2019-04-25T01:29:14.937Z,16.53
2019-04-25T01:32:25.546Z,15.10
2019-04-25T01:35:39.503Z,17.13
2019-04-25T01:39:05.559Z,16.40
2019-04-25T01:42:28.808Z,15.07
2019-04-25T01:45:33.963Z,15.87
2019-04-25T01:48:38.275Z,17.07
2019-04-25T01:51:43.693Z,15.73
2019-04-25T01:54:49.177Z,15.73
2019-04-25T01:57:54.806Z,16.93
2019-04-25T02:00:59.585Z,15.90
2019-04-25T02:04:04.424Z,16.57
2019-04-25T02:07:09.433Z,15.53
2019-04-25T02:10:14.007Z,16.50
2019-04-25T02:13:20.106Z,15.50
2019-04-25T02:16:24.582Z,15.83
2019-04-25T02:19:28.955Z,15.87
2019-04-25T02:22:33.923Z,15.57
2019-04-25T02:25:39.686Z,16.77
2019-04-25T02:28:43.958Z,16.00
2019-04-25T02:31:48.335Z,15.03
2019-04-25T02:34:55.303Z,15.40
2019-04-25T02:38:01.304Z,15.67
2019-04-25T02:41:08.351Z,15.43
2019-04-25T02:44:10.579Z,16.07
2019-04-25T02:47:34.493Z,15.10
2019-04-25T02:50:48.439Z,15.63
2019-04-25T02:53:53.758Z,14.97
2019-04-25T02:56:58.428Z,15.47
2019-04-25T03:00:06.698Z,14.00
2019-04-25T03:03:09.231Z,14.00
2019-04-25T03:06:15.010Z,14.97
2019-04-25T03:09:19.511Z,15.20
2019-04-25T03:12:30.706Z,15.30
2019-04-25T03:15:29.710Z,15.40
2019-04-25T03:18:36.801Z,15.23
2019-04-25T03:21:44.987Z,14.67
2019-04-25T03:24:48.332Z,14.77
2019-04-25T03:27:54.065Z,14.80
2019-04-25T03:30:59.860Z,15.23
2019-04-25T03:34:10.219Z,14.83
2019-04-25T03:37:13.616Z,15.13
2019-04-25T03:40:17.909Z,15.97
2019-04-25T03:43:23.265Z,15.17
2019-04-25T03:46:27.650Z,14.80
2019-04-25T03:49:31.834Z,15.67
2019-04-25T03:52:36.203Z,14.83
2019-04-25T03:55:40.661Z,16.00
2019-04-25T03:58:44.879Z,14.80
2019-04-25T04:01:49.079Z,15.30
2019-04-25T04:04:53.863Z,14.53
2019-04-25T04:07:58.200Z,15.43
2019-04-25T04:11:04.998Z,16.23
2019-04-25T04:14:08.347Z,14.60
2019-04-25T04:17:33.902Z,15.17
2019-04-25T04:20:56.861Z,15.53
2019-04-25T04:24:15.211Z,14.77
2019-04-25T04:27:20.246Z,16.57
2019-04-25T04:30:24.546Z,15.53
2019-04-25T04:33:34.012Z,15.20
2019-04-25T04:36:36.867Z,16.33
2019-04-25T04:39:41.127Z,16.80
2019-04-25T04:42:45.438Z,16.57
2019-04-25T04:45:49.679Z,16.97
2019-04-25T04:48:55.300Z,17.23
2019-04-25T04:51:59.552Z,16.43
2019-04-25T04:55:08.334Z,16.77
2019-04-25T04:58:10.375Z,18.43
2019-04-25T05:01:17.209Z,17.50
2019-04-25T05:04:26.883Z,17.70
2019-04-25T05:07:39.678Z,16.17
2019-04-25T05:10:43.851Z,18.40
2019-04-25T05:13:48.077Z,16.30
2019-04-25T05:16:53.274Z,17.63
2019-04-25T05:19:57.705Z,17.10
2019-04-25T05:23:03.146Z,17.60
2019-04-25T05:26:07.467Z,16.53
2019-04-25T05:29:11.720Z,16.57
2019-04-25T05:32:17.269Z,16.30
2019-04-25T05:35:22.530Z,16.33
2019-04-25T05:38:27.871Z,17.43
2019-04-25T05:41:38.062Z,17.23
2019-04-25T05:44:43.994Z,16.43
2019-04-25T05:47:48.438Z,16.10
2019-04-25T05:50:53.762Z,15.37
2019-04-25T05:53:58.062Z,16.03
2019-04-25T05:57:03.688Z,16.63
2019-04-25T06:00:09.645Z,16.33
2019-04-25T06:03:13.938Z,14.23
2019-04-25T06:06:19.195Z,14.10
2019-04-25T06:09:33.761Z,14.67
2019-04-25T06:13:03.657Z,13.70
2019-04-25T06:16:28.583Z,13.40
2019-04-25T06:19:39.923Z,12.97
2019-04-25T06:23:09.174Z,13.00
2019-04-25T06:26:22.607Z,14.47
2019-04-25T06:29:21.805Z,14.03
2019-04-25T06:32:26.959Z,13.90
2019-04-25T06:35:31.191Z,14.13
2019-04-25T06:38:35.549Z,14.47
2019-04-25T06:41:39.974Z,13.67
2019-04-25T06:44:50.828Z,14.87
2019-04-25T06:48:29.325Z,12.40
2019-04-25T06:51:50.162Z,10.30
2019-04-25T06:54:54.702Z,9.73
2019-04-25T06:58:09.097Z,8.67
2019-04-25T07:01:05.083Z,8.67
2019-04-25T07:04:09.274Z,7.93
2019-04-25T07:07:14.979Z,7.80
2019-04-25T07:10:19.306Z,8.20
2019-04-25T07:13:24.675Z,7.90
2019-04-25T07:16:29.505Z,7.30
2019-04-25T07:19:34.380Z,7.03
2019-04-25T07:22:39.886Z,7.20
2019-04-25T07:25:50.011Z,6.10
2019-04-25T07:29:08.119Z,6.00
2019-04-25T07:32:18.630Z,6.03
2019-04-25T07:35:23.338Z,6.23
2019-04-25T07:38:27.705Z,5.67
2019-04-25T07:41:32.082Z,5.13
2019-04-25T07:44:49.286Z,5.30
2019-04-25T07:47:43.987Z,6.37
2019-04-25T07:50:48.491Z,5.13
2019-04-25T07:53:53.498Z,6.10
2019-04-25T07:56:58.119Z,6.13
2019-04-25T08:00:03.274Z,6.27
2019-04-25T08:03:08.727Z,5.43
2019-04-25T08:06:14.016Z,5.93
2019-04-25T08:09:18.475Z,6.13
2019-04-25T08:12:22.815Z,5.00
2019-04-25T08:15:49.501Z,5.27
2019-04-25T08:18:54.067Z,5.20
2019-04-25T08:21:59.057Z,5.43
2019-04-25T08:25:04.841Z,5.20
2019-04-25T08:28:09.135Z,5.03
2019-04-25T08:31:14.713Z,5.07
2019-04-25T08:34:19.078Z,5.63
2019-04-25T08:37:24.114Z,5.10
2019-04-25T08:40:32.366Z,4.73
2019-04-25T08:43:39.088Z,4.53
2019-04-25T08:46:44.185Z,5.50
2019-04-25T08:50:00.251Z,4.23
2019-04-25T08:53:04.756Z,4.90
2019-04-25T08:56:14.963Z,5.27
2019-04-25T08:59:56.979Z,4.50
2019-04-25T09:03:05.953Z,4.70
2019-04-25T09:06:10.779Z,4.53
2019-04-25T09:09:15.139Z,4.13
2019-04-25T09:12:19.493Z,4.17
2019-04-25T09:15:24.251Z,4.00
2019-04-25T09:18:28.618Z,5.07
2019-04-25T09:21:36.580Z,4.27
2019-04-25T09:24:42.045Z,4.47
2019-04-25T09:27:47.064Z,4.10
2019-04-25T09:30:51.555Z,3.87
2019-04-25T09:33:56.714Z,4.37
2019-04-25T09:37:01.006Z,5.30
2019-04-25T09:40:15.947Z,4.43
2019-04-25T09:43:20.602Z,4.37
2019-04-25T09:46:30.178Z,3.93
2019-04-25T09:49:37.990Z,4.27
2019-04-25T09:52:44.381Z,3.93
2019-04-25T09:56:06.588Z,3.70
2019-04-25T09:59:26.690Z,4.37
2019-04-25T10:02:22.954Z,4.17
2019-04-25T10:05:27.380Z,3.73
2019-04-25T10:08:31.962Z,3.80
2019-04-25T10:11:36.240Z,4.40
2019-04-25T10:15:20.426Z,4.20
2019-04-25T10:18:24.682Z,4.43
2019-04-25T10:21:29.074Z,3.77
2019-04-25T10:24:33.807Z,3.60
2019-04-25T10:27:39.568Z,3.90
2019-04-25T10:30:43.811Z,3.80
2019-04-25T10:33:48.671Z,3.70
2019-04-25T10:36:53.292Z,3.80
2019-04-25T10:39:57.677Z,4.07
2019-04-25T10:43:03.987Z,3.77
2019-04-25T10:46:10.054Z,3.70
2019-04-25T10:49:14.639Z,4.77
2019-04-25T10:52:19.064Z,4.60
2019-04-25T10:55:23.480Z,3.40
2019-04-25T10:58:27.792Z,3.43
2019-04-25T11:01:33.695Z,4.47
2019-04-25T11:04:44.569Z,4.00
2019-04-25T11:07:49.370Z,3.53
2019-04-25T11:10:54.932Z,3.27
2019-04-25T11:13:59.868Z,2.90
2019-04-25T11:17:04.283Z,3.20
2019-04-25T11:20:08.703Z,3.30
2019-04-25T11:23:15.330Z,3.60
2019-04-25T11:26:19.673Z,3.60
2019-04-25T11:29:24.251Z,3.07
2019-04-25T11:32:28.795Z,2.40
2019-04-25T11:35:34.318Z,3.37
2019-04-25T11:39:00.661Z,3.00
2019-04-25T11:42:14.932Z,3.03
2019-04-25T11:45:19.398Z,2.50
2019-04-25T11:48:23.887Z,2.97
2019-04-25T11:51:28.346Z,2.47
2019-04-25T11:54:33.008Z,2.57
2019-04-25T11:57:37.463Z,3.03
2019-04-25T12:00:42.038Z,3.43
2019-04-25T12:03:48.907Z,3.00
2019-04-25T12:06:53.387Z,3.37
2019-04-25T12:09:57.563Z,2.50
2019-04-25T12:13:01.891Z,2.80
2019-04-25T12:16:08.736Z,3.27
2019-04-25T12:19:13.925Z,3.07
2019-04-25T12:22:18.372Z,2.57
2019-04-25T12:25:23.710Z,3.07
2019-04-25T12:28:28.146Z,2.80
2019-04-25T12:31:34.100Z,2.77
2019-04-25T12:34:38.495Z,2.33
2019-04-25T12:37:44.211Z,2.43
2019-04-25T12:40:48.872Z,3.03
2019-04-25T12:44:12.104Z,2.60
2019-04-25T12:47:19.628Z,3.20
2019-04-25T12:50:24.722Z,2.37
2019-04-25T12:53:29.067Z,2.80
2019-04-25T12:56:34.133Z,2.60
2019-04-25T12:59:38.482Z,2.70
2019-04-25T13:02:44.713Z,2.73
2019-04-25T13:05:49.100Z,2.60
2019-04-25T13:08:54.590Z,2.97
2019-04-25T13:11:58.926Z,2.40
2019-04-25T13:15:03.316Z,2.33
2019-04-25T13:18:07.637Z,2.70
2019-04-25T13:21:14.557Z,2.57
2019-04-25T13:24:18.933Z,3.60
2019-04-25T13:27:37.359Z,2.73
2019-04-25T13:31:14.816Z,3.57
2019-04-25T13:34:35.975Z,2.50
2019-04-25T13:37:34.175Z,2.63
2019-04-25T13:40:38.466Z,2.57
2019-04-25T13:43:42.640Z,2.60
2019-04-25T13:46:46.855Z,3.03
2019-04-25T13:49:51.186Z,3.03
2019-04-25T13:52:55.610Z,2.60
2019-04-25T13:55:59.779Z,2.57
2019-04-25T13:59:04.427Z,2.57
2019-04-25T14:02:09.452Z,2.77
2019-04-25T14:05:14.673Z,2.87
2019-04-25T14:08:19.054Z,2.70
2019-04-25T14:11:24.134Z,2.40
2019-04-25T14:14:28.673Z,2.90
2019-04-25T14:17:45.000Z,2.97
2019-04-25T14:20:53.813Z,2.60
2019-04-25T14:23:58.174Z,3.33
2019-04-25T14:27:03.650Z,2.87
2019-04-25T14:30:10.327Z,2.57
2019-04-25T14:33:14.602Z,3.33
2019-04-25T14:36:19.069Z,3.00
2019-04-25T14:39:23.717Z,3.33
2019-04-25T14:42:28.598Z,3.03
2019-04-25T14:45:44.037Z,2.80
2019-04-25T14:48:39.053Z,2.57
2019-04-25T14:51:43.636Z,2.77
2019-04-25T14:54:56.609Z,2.97
2019-04-25T14:58:01.549Z,2.60
2019-04-25T15:01:06.790Z,2.97
2019-04-25T15:04:11.578Z,2.87
2019-04-25T15:07:15.947Z,3.00
2019-04-25T15:10:20.155Z,3.77
2019-04-25T15:13:27.835Z,3.30
2019-04-25T15:16:32.182Z,2.83
2019-04-25T15:19:36.629Z,2.53
2019-04-25T15:22:41.008Z,2.83
2019-04-25T15:25:45.365Z,3.10
2019-04-25T15:28:49.559Z,3.30
2019-04-25T15:31:56.108Z,3.10
2019-04-25T15:35:00.118Z,3.20
2019-04-25T15:38:14.666Z,2.53
2019-04-25T15:41:29.327Z,3.07
2019-04-25T15:44:59.655Z,2.87
2019-04-25T15:48:05.706Z,4.20
2019-04-25T15:51:10.017Z,3.23
2019-04-25T15:54:14.563Z,3.40
2019-04-25T15:57:18.865Z,2.70
2019-04-25T16:00:30.735Z,2.60
2019-04-25T16:03:35.273Z,2.70
2019-04-25T16:06:39.647Z,3.07
2019-04-25T16:09:44.024Z,3.13
2019-04-25T16:12:48.398Z,2.87
2019-04-25T16:15:52.707Z,3.40
2019-04-25T16:18:57.141Z,3.07
2019-04-25T16:22:01.527Z,2.97
2019-04-25T16:25:06.640Z,3.40
2019-04-25T16:28:10.936Z,2.60
2019-04-25T16:31:18.571Z,3.13
2019-04-25T16:34:22.876Z,2.83
2019-04-25T16:37:27.955Z,2.60
2019-04-25T16:40:34.586Z,3.17
2019-04-25T16:43:43.182Z,3.03
2019-04-25T16:46:47.780Z,2.63
2019-04-25T16:49:52.478Z,3.60
2019-04-25T16:52:56.854Z,3.00
2019-04-25T16:56:01.398Z,3.07
2019-04-25T16:59:05.935Z,3.03
2019-04-25T17:02:10.403Z,3.27
2019-04-25T17:05:15.043Z,3.30
2019-04-25T17:08:19.405Z,3.47
2019-04-25T17:11:23.778Z,2.80
2019-04-25T17:14:51.933Z,3.73
2019-04-25T17:18:04.198Z,3.63
2019-04-25T17:21:11.590Z,3.63
2019-04-25T17:24:15.167Z,4.00
2019-04-25T17:27:19.914Z,3.57
2019-04-25T17:30:26.060Z,3.77
2019-04-25T17:33:42.860Z,4.40
2019-04-25T17:36:53.283Z,4.33
2019-04-25T17:40:00.964Z,3.77
2019-04-25T17:43:11.355Z,3.43
2019-04-25T17:46:13.288Z,3.70
2019-04-25T17:49:17.703Z,3.57
2019-04-25T17:52:26.375Z,3.10
2019-04-25T17:55:30.435Z,3.57
2019-04-25T17:58:35.404Z,4.57
2019-04-25T18:01:40.110Z,4.80
2019-04-25T18:04:44.619Z,5.20
2019-04-25T18:07:49.099Z,6.33
2019-04-25T18:10:53.690Z,7.37
2019-04-25T18:13:58.100Z,7.80
2019-04-25T18:17:02.411Z,9.10
2019-04-25T18:20:15.031Z,9.17
2019-04-25T18:23:37.292Z,9.87
2019-04-25T18:26:48.950Z,9.70
2019-04-25T18:29:53.169Z,9.50
2019-04-25T18:33:10.963Z,11.27
2019-04-25T18:36:47.247Z,10.80
2019-04-25T18:39:58.282Z,10.80
2019-04-25T18:43:13.883Z,11.07
2019-04-25T18:46:26.418Z,12.53
2019-04-25T18:49:30.810Z,11.73
2019-04-25T18:52:54.160Z,12.60
2019-04-25T18:56:04.527Z,12.33
2019-04-25T18:59:33.855Z,11.50
2019-04-25T19:03:00.311Z,12.43
2019-04-25T19:06:09.227Z,11.13
2019-04-25T19:09:17.000Z,11.53
2019-04-25T19:12:21.323Z,10.60
2019-04-25T19:15:25.687Z,11.93
2019-04-25T19:18:30.078Z,11.17
2019-04-25T19:21:34.463Z,11.73
2019-04-25T19:24:45.028Z,11.77
2019-04-25T19:27:51.079Z,12.33
2019-04-25T19:30:56.029Z,11.77
2019-04-25T19:34:03.536Z,10.93
2019-04-25T19:37:08.300Z,11.63
2019-04-25T19:40:30.389Z,12.53
2019-04-25T19:43:59.896Z,11.87
2019-04-25T19:47:04.621Z,11.40
2019-04-25T19:50:09.283Z,12.20
2019-04-25T19:53:15.044Z,11.67
2019-04-25T19:56:19.653Z,12.20
2019-04-25T19:59:24.027Z,13.27
2019-04-25T20:02:46.994Z,13.13
2019-04-25T20:06:12.820Z,12.47
2019-04-25T20:09:40.895Z,11.93
2019-04-25T20:12:50.327Z,11.93
2019-04-25T20:15:53.849Z,11.80
2019-04-25T20:18:58.240Z,12.50
2019-04-25T20:22:02.564Z,13.40
2019-04-25T20:25:07.329Z,14.20
2019-04-25T20:28:11.739Z,18.43
2019-04-25T20:31:16.046Z,19.43
2019-04-25T20:34:20.357Z,18.90
2019-04-25T20:37:24.648Z,19.30
2019-04-25T20:40:29.069Z,19.97
2019-04-25T20:43:33.406Z,18.10
2019-04-25T20:46:37.851Z,19.13
2019-04-25T20:49:42.222Z,18.03
2019-04-25T20:52:47.505Z,17.87
2019-04-25T20:55:52.841Z,19.93
2019-04-25T20:58:57.702Z,22.23
2019-04-25T21:02:02.130Z,23.67
2019-04-25T21:05:06.492Z,24.33
2019-04-25T21:08:10.787Z,26.07
2019-04-25T21:11:15.389Z,26.30
2019-04-25T21:14:28.852Z,27.07
2019-04-25T21:17:45.638Z,27.70
2019-04-25T21:20:50.683Z,28.10
2019-04-25T21:23:56.968Z,25.67
2019-04-25T21:27:01.369Z,25.47
2019-04-25T21:30:06.875Z,24.60
2019-04-25T21:33:11.143Z,22.60
2019-04-25T21:36:15.734Z,21.03
2019-04-25T21:39:32.549Z,20.17
2019-04-25T21:42:51.567Z,19.17
2019-04-25T21:45:56.683Z,17.13
2019-04-25T21:49:01.290Z,16.27
2019-04-25T21:52:05.691Z,16.27
2019-04-25T21:55:10.197Z,15.50
2019-04-25T21:58:14.855Z,14.00
2019-04-25T22:01:23.522Z,14.27
2019-04-25T22:04:38.220Z,12.70
2019-04-25T22:07:35.541Z,12.83
2019-04-25T22:10:40.350Z,13.00
2019-04-25T22:13:44.838Z,12.13
2019-04-25T22:16:49.311Z,12.97
2019-04-25T22:19:53.964Z,11.97
2019-04-25T22:22:58.614Z,12.17
2019-04-25T22:26:03.004Z,12.27
2019-04-25T22:29:07.768Z,11.87
2019-04-25T22:32:31.139Z,10.70
2019-04-25T22:35:51.131Z,11.23
2019-04-25T22:39:14.453Z,11.13
2019-04-25T22:42:19.135Z,11.57
2019-04-25T22:45:23.652Z,11.27
2019-04-25T22:49:00.038Z,11.37
2019-04-25T22:52:04.995Z,10.70
2019-04-25T22:55:11.508Z,10.90
2019-04-25T22:58:16.287Z,11.03
2019-04-25T23:01:38.137Z,10.17
2019-04-25T23:05:09.299Z,10.60
2019-04-25T23:08:07.933Z,10.43
2019-04-25T23:11:12.504Z,10.30
2019-04-25T23:14:17.074Z,10.47
2019-04-25T23:17:21.443Z,9.80
2019-04-25T23:20:25.910Z,9.73
2019-04-25T23:23:32.332Z,9.50
2019-04-25T23:26:44.641Z,9.77
2019-04-25T23:29:49.050Z,10.17
2019-04-25T23:32:53.575Z,11.63
2019-04-25T23:35:57.856Z,10.20
2019-04-25T23:39:02.194Z,9.93
2019-04-25T23:42:07.284Z,12.00
2019-04-25T23:45:12.407Z,10.63
2019-04-25T23:48:16.734Z,10.97
2019-04-25T23:51:21.002Z,11.37
2019-04-25T23:54:25.491Z,12.20
2019-04-25T23:57:30.046Z,11.40
